EGAC - Belfast / Belfast-Harbour
Distance from station: E 5mi, 14km
Updated: 07/21/2018 7:50pm
Overcast
Overcast
 Wind from SSW
Wind: SSW 3 mph , 6 km/h
Temperature: 63°F , 17°C
Dew Point: 59°F , 15°C
Humidity: 88%
Barometer: 29.94 inHg , 1014 hPa
Clouds: Overcast
Visibility: 6 miles , 10 km
Cloud details: Mostly Cloudy 900 ft
Overcast 1300 ft
2018/07/22 02:50 EGAC 220250Z AUTO 21003KT 9999 BKN009/// OVC013/// 17/15 Q1014